sensor_id;sensor_type;location;lat;lon;timestamp;P1;durP1;ratioP1;P2;durP2;ratioP2
27939;SDS011;15275;51.716;14.324;2023-02-28T00:00:28;8.57;;;3.17;;
27939;SDS011;15275;51.716;14.324;2023-02-28T00:02:55;9.15;;;4.47;;
27939;SDS011;15275;51.716;14.324;2023-02-28T00:05:21;8.93;;;3.47;;
27939;SDS011;15275;51.716;14.324;2023-02-28T00:07:50;9.43;;;3.85;;
27939;SDS011;15275;51.716;14.324;2023-02-28T00:10:17;9.20;;;4.07;;
27939;SDS011;15275;51.716;14.324;2023-02-28T00:12:52;8.18;;;3.70;;
27939;SDS011;15275;51.716;14.324;2023-02-28T00:15:21;7.70;;;3.05;;
27939;SDS011;15275;51.716;14.324;2023-02-28T00:17:49;11.38;;;3.67;;
27939;SDS011;15275;51.716;14.324;2023-02-28T00:20:15;9.50;;;4.05;;
27939;SDS011;15275;51.716;14.324;2023-02-28T00:22:43;8.35;;;3.38;;
27939;SDS011;15275;51.716;14.324;2023-02-28T00:25:13;8.88;;;3.92;;
27939;SDS011;15275;51.716;14.324;2023-02-28T00:27:42;7.43;;;4.35;;
27939;SDS011;15275;51.716;14.324;2023-02-28T00:30:11;6.53;;;3.42;;
27939;SDS011;15275;51.716;14.324;2023-02-28T00:32:40;8.18;;;3.35;;
27939;SDS011;15275;51.716;14.324;2023-02-28T00:35:06;9.35;;;3.50;;
27939;SDS011;15275;51.716;14.324;2023-02-28T00:37:33;9.07;;;3.30;;
27939;SDS011;15275;51.716;14.324;2023-02-28T00:39:59;7.35;;;3.50;;
27939;SDS011;15275;51.716;14.324;2023-02-28T00:42:26;9.05;;;3.90;;
27939;SDS011;15275;51.716;14.324;2023-02-28T00:44:51;9.85;;;4.15;;
27939;SDS011;15275;51.716;14.324;2023-02-28T00:47:17;9.18;;;4.20;;
27939;SDS011;15275;51.716;14.324;2023-02-28T00:49:43;8.52;;;3.35;;
27939;SDS011;15275;51.716;14.324;2023-02-28T00:52:09;10.07;;;3.78;;
27939;SDS011;15275;51.716;14.324;2023-02-28T00:54:35;7.95;;;3.75;;
27939;SDS011;15275;51.716;14.324;2023-02-28T00:57:01;11.05;;;4.80;;
27939;SDS011;15275;51.716;14.324;2023-02-28T00:59:27;8.88;;;3.80;;
27939;SDS011;15275;51.716;14.324;2023-02-28T01:01:53;10.48;;;3.90;;
27939;SDS011;15275;51.716;14.324;2023-02-28T01:04:18;7.30;;;3.60;;
27939;SDS011;15275;51.716;14.324;2023-02-28T01:06:44;7.65;;;3.50;;
27939;SDS011;15275;51.716;14.324;2023-02-28T01:09:10;9.07;;;3.60;;
27939;SDS011;15275;51.716;14.324;2023-02-28T01:11:37;6.45;;;3.15;;
27939;SDS011;15275;51.716;14.324;2023-02-28T01:14:03;8.85;;;4.47;;
27939;SDS011;15275;51.716;14.324;2023-02-28T01:16:29;8.57;;;4.05;;
27939;SDS011;15275;51.716;14.324;2023-02-28T01:18:55;11.60;;;5.03;;
27939;SDS011;15275;51.716;14.324;2023-02-28T01:21:22;7.97;;;3.72;;
27939;SDS011;15275;51.716;14.324;2023-02-28T01:23:49;9.70;;;4.30;;
27939;SDS011;15275;51.716;14.324;2023-02-28T01:26:17;8.93;;;3.70;;
27939;SDS011;15275;51.716;14.324;2023-02-28T01:28:45;8.23;;;3.60;;
27939;SDS011;15275;51.716;14.324;2023-02-28T01:31:13;8.10;;;3.13;;
27939;SDS011;15275;51.716;14.324;2023-02-28T01:33:39;8.85;;;4.28;;
27939;SDS011;15275;51.716;14.324;2023-02-28T01:36:07;10.23;;;3.58;;
27939;SDS011;15275;51.716;14.324;2023-02-28T01:38:41;11.45;;;4.63;;
27939;SDS011;15275;51.716;14.324;2023-02-28T01:41:08;7.75;;;3.97;;
27939;SDS011;15275;51.716;14.324;2023-02-28T01:46:08;11.35;;;3.95;;
27939;SDS011;15275;51.716;14.324;2023-02-28T01:48:36;10.13;;;4.38;;
27939;SDS011;15275;51.716;14.324;2023-02-28T01:51:12;6.90;;;3.67;;
27939;SDS011;15275;51.716;14.324;2023-02-28T01:53:49;10.15;;;3.88;;
27939;SDS011;15275;51.716;14.324;2023-02-28T01:56:24;11.80;;;4.25;;
27939;SDS011;15275;51.716;14.324;2023-02-28T01:58:54;12.00;;;4.47;;
27939;SDS011;15275;51.716;14.324;2023-02-28T02:01:21;9.50;;;4.22;;
27939;SDS011;15275;51.716;14.324;2023-02-28T02:03:53;7.35;;;3.85;;
27939;SDS011;15275;51.716;14.324;2023-02-28T02:06:23;8.55;;;4.28;;
27939;SDS011;15275;51.716;14.324;2023-02-28T02:08:54;10.55;;;5.10;;
27939;SDS011;15275;51.716;14.324;2023-02-28T02:11:21;7.13;;;4.03;;
27939;SDS011;15275;51.716;14.324;2023-02-28T02:25:54;9.43;;;4.60;;
27939;SDS011;15275;51.716;14.324;2023-02-28T02:31:11;12.07;;;4.97;;
27939;SDS011;15275;51.716;14.324;2023-02-28T02:36:53;9.80;;;4.32;;
27939;SDS011;15275;51.716;14.324;2023-02-28T02:47:55;9.57;;;4.72;;
27939;SDS011;15275;51.716;14.324;2023-02-28T02:50:25;12.30;;;5.07;;
27939;SDS011;15275;51.716;14.324;2023-02-28T02:53:00;8.77;;;4.43;;
27939;SDS011;15275;51.716;14.324;2023-02-28T02:55:28;15.68;;;5.60;;
27939;SDS011;15275;51.716;14.324;2023-02-28T02:57:59;12.05;;;5.18;;
27939;SDS011;15275;51.716;14.324;2023-02-28T03:00:30;11.35;;;4.38;;
27939;SDS011;15275;51.716;14.324;2023-02-28T03:03:03;9.63;;;4.95;;
27939;SDS011;15275;51.716;14.324;2023-02-28T03:05:35;10.18;;;4.97;;
27939;SDS011;15275;51.716;14.324;2023-02-28T03:08:12;14.60;;;5.28;;
27939;SDS011;15275;51.716;14.324;2023-02-28T03:10:49;9.40;;;4.80;;
27939;SDS011;15275;51.716;14.324;2023-02-28T03:13:34;14.18;;;5.40;;
27939;SDS011;15275;51.716;14.324;2023-02-28T03:25:32;12.98;;;5.15;;
27939;SDS011;15275;51.716;14.324;2023-02-28T03:30:54;11.20;;;4.22;;
27939;SDS011;15275;51.716;14.324;2023-02-28T03:36:29;12.93;;;4.50;;
27939;SDS011;15275;51.716;14.324;2023-02-28T03:39:07;10.38;;;4.20;;
27939;SDS011;15275;51.716;14.324;2023-02-28T03:41:43;14.48;;;4.75;;
27939;SDS011;15275;51.716;14.324;2023-02-28T03:44:35;12.75;;;4.90;;
27939;SDS011;15275;51.716;14.324;2023-02-28T03:50:10;9.27;;;4.68;;
27939;SDS011;15275;51.716;14.324;2023-02-28T03:52:37;9.40;;;4.65;;
27939;SDS011;15275;51.716;14.324;2023-02-28T03:55:10;9.05;;;4.95;;
27939;SDS011;15275;51.716;14.324;2023-02-28T03:57:56;13.57;;;5.22;;
27939;SDS011;15275;51.716;14.324;2023-02-28T04:00:55;11.20;;;4.72;;
27939;SDS011;15275;51.716;14.324;2023-02-28T04:03:48;13.77;;;5.20;;
27939;SDS011;15275;51.716;14.324;2023-02-28T04:06:19;12.30;;;4.75;;
27939;SDS011;15275;51.716;14.324;2023-02-28T04:08:47;9.98;;;4.50;;
27939;SDS011;15275;51.716;14.324;2023-02-28T04:11:18;12.77;;;5.50;;
27939;SDS011;15275;51.716;14.324;2023-02-28T04:13:54;11.20;;;5.03;;
27939;SDS011;15275;51.716;14.324;2023-02-28T04:16:20;11.88;;;4.80;;
27939;SDS011;15275;51.716;14.324;2023-02-28T04:18:46;11.93;;;5.43;;
27939;SDS011;15275;51.716;14.324;2023-02-28T04:21:13;11.48;;;5.50;;
27939;SDS011;15275;51.716;14.324;2023-02-28T04:23:39;11.77;;;5.20;;
27939;SDS011;15275;51.716;14.324;2023-02-28T04:26:05;13.55;;;5.88;;
27939;SDS011;15275;51.716;14.324;2023-02-28T04:28:32;14.85;;;5.70;;
27939;SDS011;15275;51.716;14.324;2023-02-28T04:31:03;13.20;;;5.28;;
27939;SDS011;15275;51.716;14.324;2023-02-28T04:33:30;14.23;;;5.32;;
27939;SDS011;15275;51.716;14.324;2023-02-28T04:36:05;13.20;;;5.30;;
27939;SDS011;15275;51.716;14.324;2023-02-28T04:38:37;15.68;;;5.22;;
27939;SDS011;15275;51.716;14.324;2023-02-28T04:41:04;12.50;;;5.30;;
27939;SDS011;15275;51.716;14.324;2023-02-28T04:43:31;15.32;;;5.75;;
27939;SDS011;15275;51.716;14.324;2023-02-28T04:45:58;12.93;;;5.40;;
27939;SDS011;15275;51.716;14.324;2023-02-28T04:48:27;11.45;;;4.78;;
27939;SDS011;15275;51.716;14.324;2023-02-28T04:50:55;13.85;;;6.05;;
27939;SDS011;15275;51.716;14.324;2023-02-28T04:53:28;11.98;;;5.35;;
27939;SDS011;15275;51.716;14.324;2023-02-28T04:55:55;13.48;;;5.72;;
27939;SDS011;15275;51.716;14.324;2023-02-28T04:58:22;13.02;;;5.68;;
27939;SDS011;15275;51.716;14.324;2023-02-28T05:00:49;12.77;;;5.65;;
27939;SDS011;15275;51.716;14.324;2023-02-28T05:03:18;17.17;;;6.28;;
27939;SDS011;15275;51.716;14.324;2023-02-28T05:05:46;17.45;;;5.88;;
27939;SDS011;15275;51.716;14.324;2023-02-28T05:08:12;13.10;;;5.00;;
27939;SDS011;15275;51.716;14.324;2023-02-28T05:10:38;15.48;;;5.80;;
27939;SDS011;15275;51.716;14.324;2023-02-28T05:13:04;15.68;;;6.18;;
27939;SDS011;15275;51.716;14.324;2023-02-28T05:15:29;11.85;;;5.53;;
27939;SDS011;15275;51.716;14.324;2023-02-28T05:17:55;14.68;;;5.15;;
27939;SDS011;15275;51.716;14.324;2023-02-28T05:20:21;14.88;;;5.90;;
27939;SDS011;15275;51.716;14.324;2023-02-28T05:22:47;13.02;;;5.45;;
27939;SDS011;15275;51.716;14.324;2023-02-28T05:25:18;11.40;;;5.15;;
27939;SDS011;15275;51.716;14.324;2023-02-28T05:27:47;15.25;;;5.32;;
27939;SDS011;15275;51.716;14.324;2023-02-28T05:30:13;15.20;;;5.82;;
27939;SDS011;15275;51.716;14.324;2023-02-28T05:32:40;16.42;;;6.25;;
27939;SDS011;15275;51.716;14.324;2023-02-28T05:35:10;15.00;;;6.97;;
27939;SDS011;15275;51.716;14.324;2023-02-28T05:37:37;16.40;;;6.15;;
27939;SDS011;15275;51.716;14.324;2023-02-28T05:40:04;19.63;;;6.88;;
27939;SDS011;15275;51.716;14.324;2023-02-28T05:42:35;12.90;;;5.75;;
27939;SDS011;15275;51.716;14.324;2023-02-28T05:45:02;14.85;;;5.53;;
27939;SDS011;15275;51.716;14.324;2023-02-28T05:47:32;15.68;;;5.47;;
27939;SDS011;15275;51.716;14.324;2023-02-28T05:49:57;13.82;;;6.20;;
27939;SDS011;15275;51.716;14.324;2023-02-28T05:52:23;16.77;;;6.45;;
27939;SDS011;15275;51.716;14.324;2023-02-28T05:54:49;13.50;;;5.72;;
27939;SDS011;15275;51.716;14.324;2023-02-28T05:57:15;11.57;;;5.75;;
27939;SDS011;15275;51.716;14.324;2023-02-28T05:59:41;13.38;;;5.32;;
27939;SDS011;15275;51.716;14.324;2023-02-28T06:02:10;15.20;;;7.47;;
27939;SDS011;15275;51.716;14.324;2023-02-28T06:04:39;15.40;;;5.72;;
27939;SDS011;15275;51.716;14.324;2023-02-28T06:07:06;18.73;;;7.00;;
27939;SDS011;15275;51.716;14.324;2023-02-28T06:09:32;12.75;;;6.22;;
27939;SDS011;15275;51.716;14.324;2023-02-28T06:11:59;15.75;;;5.80;;
27939;SDS011;15275;51.716;14.324;2023-02-28T06:14:28;19.20;;;6.20;;
27939;SDS011;15275;51.716;14.324;2023-02-28T06:16:56;16.95;;;6.10;;
27939;SDS011;15275;51.716;14.324;2023-02-28T06:19:23;14.23;;;6.05;;
27939;SDS011;15275;51.716;14.324;2023-02-28T06:21:51;16.70;;;6.78;;
27939;SDS011;15275;51.716;14.324;2023-02-28T06:24:18;18.20;;;8.75;;
27939;SDS011;15275;51.716;14.324;2023-02-28T06:26:45;20.67;;;8.70;;
27939;SDS011;15275;51.716;14.324;2023-02-28T06:29:12;24.08;;;10.88;;
27939;SDS011;15275;51.716;14.324;2023-02-28T06:31:43;24.42;;;10.13;;
27939;SDS011;15275;51.716;14.324;2023-02-28T06:34:10;19.70;;;9.55;;
27939;SDS011;15275;51.716;14.324;2023-02-28T06:36:41;19.52;;;8.55;;
27939;SDS011;15275;51.716;14.324;2023-02-28T06:39:07;16.27;;;7.60;;
27939;SDS011;15275;51.716;14.324;2023-02-28T06:41:34;15.63;;;7.30;;
27939;SDS011;15275;51.716;14.324;2023-02-28T06:44:05;16.77;;;7.90;;
27939;SDS011;15275;51.716;14.324;2023-02-28T06:46:38;19.27;;;7.47;;
27939;SDS011;15275;51.716;14.324;2023-02-28T06:49:08;16.17;;;7.18;;
27939;SDS011;15275;51.716;14.324;2023-02-28T06:51:36;15.93;;;7.78;;
27939;SDS011;15275;51.716;14.324;2023-02-28T06:54:06;18.45;;;7.00;;
27939;SDS011;15275;51.716;14.324;2023-02-28T06:56:35;18.92;;;6.70;;
27939;SDS011;15275;51.716;14.324;2023-02-28T06:59:02;15.82;;;6.55;;
27939;SDS011;15275;51.716;14.324;2023-02-28T07:01:28;19.88;;;6.95;;
27939;SDS011;15275;51.716;14.324;2023-02-28T07:03:56;19.23;;;7.75;;
27939;SDS011;15275;51.716;14.324;2023-02-28T07:06:23;19.08;;;7.93;;
27939;SDS011;15275;51.716;14.324;2023-02-28T07:08:50;15.30;;;6.25;;
27939;SDS011;15275;51.716;14.324;2023-02-28T07:11:18;14.80;;;6.80;;
27939;SDS011;15275;51.716;14.324;2023-02-28T07:13:47;19.73;;;7.80;;
27939;SDS011;15275;51.716;14.324;2023-02-28T07:16:14;15.73;;;6.57;;
27939;SDS011;15275;51.716;14.324;2023-02-28T07:18:40;16.80;;;7.50;;
27939;SDS011;15275;51.716;14.324;2023-02-28T07:21:07;24.60;;;9.10;;
27939;SDS011;15275;51.716;14.324;2023-02-28T07:23:35;26.02;;;10.32;;
27939;SDS011;15275;51.716;14.324;2023-02-28T07:26:03;30.25;;;12.43;;
27939;SDS011;15275;51.716;14.324;2023-02-28T07:28:30;32.55;;;13.05;;
27939;SDS011;15275;51.716;14.324;2023-02-28T07:30:56;37.05;;;16.92;;
27939;SDS011;15275;51.716;14.324;2023-02-28T07:33:22;36.83;;;16.20;;
27939;SDS011;15275;51.716;14.324;2023-02-28T07:35:49;39.05;;;15.98;;
27939;SDS011;15275;51.716;14.324;2023-02-28T07:38:15;29.17;;;12.95;;
27939;SDS011;15275;51.716;14.324;2023-02-28T07:40:40;33.63;;;12.48;;
27939;SDS011;15275;51.716;14.324;2023-02-28T07:43:06;21.05;;;10.40;;
27939;SDS011;15275;51.716;14.324;2023-02-28T07:45:32;25.48;;;11.13;;
27939;SDS011;15275;51.716;14.324;2023-02-28T07:47:59;23.58;;;10.13;;
27939;SDS011;15275;51.716;14.324;2023-02-28T07:50:26;22.23;;;8.93;;
27939;SDS011;15275;51.716;14.324;2023-02-28T07:52:55;20.10;;;8.68;;
27939;SDS011;15275;51.716;14.324;2023-02-28T07:55:23;24.35;;;9.60;;
27939;SDS011;15275;51.716;14.324;2023-02-28T07:57:49;21.77;;;9.70;;
27939;SDS011;15275;51.716;14.324;2023-02-28T08:00:15;25.30;;;11.25;;
27939;SDS011;15275;51.716;14.324;2023-02-28T08:02:41;25.08;;;10.00;;
27939;SDS011;15275;51.716;14.324;2023-02-28T08:05:07;27.80;;;9.90;;
27939;SDS011;15275;51.716;14.324;2023-02-28T08:07:33;25.25;;;10.48;;
27939;SDS011;15275;51.716;14.324;2023-02-28T08:09:59;24.80;;;10.65;;
27939;SDS011;15275;51.716;14.324;2023-02-28T08:12:26;19.80;;;8.68;;
27939;SDS011;15275;51.716;14.324;2023-02-28T08:14:51;18.98;;;8.27;;
27939;SDS011;15275;51.716;14.324;2023-02-28T08:17:17;18.85;;;9.27;;
27939;SDS011;15275;51.716;14.324;2023-02-28T08:19:46;23.58;;;9.73;;
27939;SDS011;15275;51.716;14.324;2023-02-28T08:22:12;21.55;;;9.52;;
27939;SDS011;15275;51.716;14.324;2023-02-28T08:24:38;17.73;;;8.93;;
27939;SDS011;15275;51.716;14.324;2023-02-28T08:27:07;17.48;;;8.30;;
27939;SDS011;15275;51.716;14.324;2023-02-28T08:29:33;21.17;;;8.68;;
27939;SDS011;15275;51.716;14.324;2023-02-28T08:32:02;20.20;;;8.77;;
27939;SDS011;15275;51.716;14.324;2023-02-28T08:34:29;19.92;;;8.05;;
27939;SDS011;15275;51.716;14.324;2023-02-28T08:36:55;22.65;;;7.97;;
27939;SDS011;15275;51.716;14.324;2023-02-28T08:39:21;17.48;;;8.00;;
27939;SDS011;15275;51.716;14.324;2023-02-28T08:41:47;20.60;;;8.35;;
27939;SDS011;15275;51.716;14.324;2023-02-28T08:44:13;22.30;;;8.63;;
27939;SDS011;15275;51.716;14.324;2023-02-28T08:46:38;15.82;;;8.00;;
27939;SDS011;15275;51.716;14.324;2023-02-28T08:49:04;17.90;;;7.55;;
27939;SDS011;15275;51.716;14.324;2023-02-28T08:51:32;15.57;;;7.47;;
27939;SDS011;15275;51.716;14.324;2023-02-28T08:53:58;16.77;;;7.35;;
27939;SDS011;15275;51.716;14.324;2023-02-28T08:56:26;18.52;;;7.20;;
27939;SDS011;15275;51.716;14.324;2023-02-28T08:58:54;15.38;;;7.25;;
27939;SDS011;15275;51.716;14.324;2023-02-28T09:01:22;13.45;;;7.15;;
27939;SDS011;15275;51.716;14.324;2023-02-28T09:03:54;15.77;;;6.50;;
27939;SDS011;15275;51.716;14.324;2023-02-28T09:06:21;13.07;;;6.70;;
27939;SDS011;15275;51.716;14.324;2023-02-28T09:08:49;15.43;;;7.35;;
27939;SDS011;15275;51.716;14.324;2023-02-28T09:11:15;13.23;;;7.63;;
27939;SDS011;15275;51.716;14.324;2023-02-28T09:13:41;12.77;;;6.43;;
27939;SDS011;15275;51.716;14.324;2023-02-28T09:16:08;14.80;;;6.50;;
27939;SDS011;15275;51.716;14.324;2023-02-28T09:18:37;15.95;;;7.05;;
27939;SDS011;15275;51.716;14.324;2023-02-28T09:21:05;16.80;;;6.93;;
27939;SDS011;15275;51.716;14.324;2023-02-28T09:23:39;14.52;;;6.88;;
27939;SDS011;15275;51.716;14.324;2023-02-28T09:26:13;11.82;;;6.60;;
27939;SDS011;15275;51.716;14.324;2023-02-28T09:28:44;14.02;;;6.95;;
27939;SDS011;15275;51.716;14.324;2023-02-28T09:31:12;13.80;;;6.68;;
27939;SDS011;15275;51.716;14.324;2023-02-28T09:33:46;11.43;;;5.50;;
27939;SDS011;15275;51.716;14.324;2023-02-28T09:36:14;11.90;;;5.90;;
27939;SDS011;15275;51.716;14.324;2023-02-28T09:38:40;10.43;;;5.43;;
27939;SDS011;15275;51.716;14.324;2023-02-28T09:41:14;14.00;;;5.45;;
27939;SDS011;15275;51.716;14.324;2023-02-28T09:43:47;9.55;;;5.18;;
27939;SDS011;15275;51.716;14.324;2023-02-28T09:46:21;8.73;;;4.60;;
27939;SDS011;15275;51.716;14.324;2023-02-28T09:49:14;4.80;;;2.90;;
27939;SDS011;15275;51.716;14.324;2023-02-28T09:51:53;4.32;;;2.65;;
27939;SDS011;15275;51.716;14.324;2023-02-28T09:54:33;4.32;;;2.25;;
27939;SDS011;15275;51.716;14.324;2023-02-28T09:57:01;4.32;;;2.03;;
27939;SDS011;15275;51.716;14.324;2023-02-28T10:11:09;5.93;;;3.42;;
27939;SDS011;15275;51.716;14.324;2023-02-28T10:16:12;9.68;;;4.43;;
27939;SDS011;15275;51.716;14.324;2023-02-28T10:18:48;8.37;;;3.53;;
27939;SDS011;15275;51.716;14.324;2023-02-28T10:21:28;6.82;;;4.13;;
27939;SDS011;15275;51.716;14.324;2023-02-28T10:27:13;9.07;;;4.60;;
27939;SDS011;15275;51.716;14.324;2023-02-28T10:29:49;10.38;;;4.18;;
27939;SDS011;15275;51.716;14.324;2023-02-28T10:32:36;11.07;;;5.78;;
27939;SDS011;15275;51.716;14.324;2023-02-28T10:35:10;9.18;;;4.60;;
27939;SDS011;15275;51.716;14.324;2023-02-28T10:37:47;10.45;;;4.75;;
27939;SDS011;15275;51.716;14.324;2023-02-28T10:42:55;7.35;;;4.50;;
27939;SDS011;15275;51.716;14.324;2023-02-28T10:45:26;8.25;;;4.03;;
27939;SDS011;15275;51.716;14.324;2023-02-28T10:48:22;12.45;;;3.95;;
27939;SDS011;15275;51.716;14.324;2023-02-28T10:50:56;8.40;;;4.80;;
27939;SDS011;15275;51.716;14.324;2023-02-28T11:01:41;15.45;;;6.53;;
27939;SDS011;15275;51.716;14.324;2023-02-28T11:07:20;11.07;;;5.22;;
27939;SDS011;15275;51.716;14.324;2023-02-28T11:09:49;10.27;;;4.30;;
27939;SDS011;15275;51.716;14.324;2023-02-28T11:12:25;7.95;;;4.72;;
27939;SDS011;15275;51.716;14.324;2023-02-28T11:18:02;5.53;;;3.60;;
27939;SDS011;15275;51.716;14.324;2023-02-28T11:20:36;6.20;;;3.78;;
27939;SDS011;15275;51.716;14.324;2023-02-28T11:23:03;6.80;;;3.97;;
27939;SDS011;15275;51.716;14.324;2023-02-28T11:25:34;7.50;;;4.05;;
27939;SDS011;15275;51.716;14.324;2023-02-28T11:28:23;7.93;;;3.20;;
27939;SDS011;15275;51.716;14.324;2023-02-28T11:36:31;7.78;;;3.17;;
27939;SDS011;15275;51.716;14.324;2023-02-28T11:39:07;6.68;;;3.22;;
27939;SDS011;15275;51.716;14.324;2023-02-28T11:47:37;8.25;;;3.53;;
27939;SDS011;15275;51.716;14.324;2023-02-28T11:55:27;9.80;;;4.72;;
27939;SDS011;15275;51.716;14.324;2023-02-28T12:06:47;5.28;;;3.13;;
27939;SDS011;15275;51.716;14.324;2023-02-28T12:09:47;8.50;;;3.38;;
27939;SDS011;15275;51.716;14.324;2023-02-28T12:18:42;5.90;;;3.10;;
27939;SDS011;15275;51.716;14.324;2023-02-28T12:26:36;5.80;;;3.22;;
27939;SDS011;15275;51.716;14.324;2023-02-28T12:37:24;5.38;;;3.17;;
27939;SDS011;15275;51.716;14.324;2023-02-28T12:40:03;10.00;;;4.53;;
27939;SDS011;15275;51.716;14.324;2023-02-28T12:42:40;7.30;;;3.60;;
27939;SDS011;15275;51.716;14.324;2023-02-28T12:47:50;7.10;;;2.90;;
27939;SDS011;15275;51.716;14.324;2023-02-28T12:50:22;8.07;;;4.00;;
27939;SDS011;15275;51.716;14.324;2023-02-28T12:52:58;7.13;;;3.60;;
27939;SDS011;15275;51.716;14.324;2023-02-28T13:10:39;5.18;;;2.72;;
27939;SDS011;15275;51.716;14.324;2023-02-28T13:13:14;6.97;;;2.92;;
27939;SDS011;15275;51.716;14.324;2023-02-28T13:16:00;8.80;;;3.00;;
27939;SDS011;15275;51.716;14.324;2023-02-28T13:18:38;6.35;;;2.53;;
27939;SDS011;15275;51.716;14.324;2023-02-28T13:26:22;5.28;;;2.90;;
27939;SDS011;15275;51.716;14.324;2023-02-28T13:35:16;4.22;;;2.38;;
27939;SDS011;15275;51.716;14.324;2023-02-28T13:42:52;4.68;;;2.78;;
27939;SDS011;15275;51.716;14.324;2023-02-28T13:45:23;7.05;;;2.72;;
27939;SDS011;15275;51.716;14.324;2023-02-28T14:01:44;6.25;;;3.55;;
27939;SDS011;15275;51.716;14.324;2023-02-28T14:07:45;7.05;;;3.28;;
27939;SDS011;15275;51.716;14.324;2023-02-28T14:13:13;7.22;;;3.60;;
27939;SDS011;15275;51.716;14.324;2023-02-28T14:15:58;6.60;;;3.13;;
27939;SDS011;15275;51.716;14.324;2023-02-28T14:18:30;10.15;;;3.95;;
27939;SDS011;15275;51.716;14.324;2023-02-28T14:35:50;6.32;;;3.60;;
27939;SDS011;15275;51.716;14.324;2023-02-28T14:38:24;6.05;;;3.13;;
27939;SDS011;15275;51.716;14.324;2023-02-28T14:40:55;7.53;;;3.10;;
27939;SDS011;15275;51.716;14.324;2023-02-28T14:43:24;7.43;;;3.75;;
27939;SDS011;15275;51.716;14.324;2023-02-28T14:46:00;5.10;;;3.30;;
27939;SDS011;15275;51.716;14.324;2023-02-28T14:48:29;7.25;;;3.35;;
27939;SDS011;15275;51.716;14.324;2023-02-28T14:50:59;7.60;;;3.22;;
27939;SDS011;15275;51.716;14.324;2023-02-28T14:53:30;8.40;;;3.70;;
27939;SDS011;15275;51.716;14.324;2023-02-28T14:56:02;7.75;;;3.58;;
27939;SDS011;15275;51.716;14.324;2023-02-28T14:58:31;5.47;;;3.25;;
27939;SDS011;15275;51.716;14.324;2023-02-28T15:01:00;8.60;;;4.07;;
27939;SDS011;15275;51.716;14.324;2023-02-28T15:03:35;6.55;;;3.60;;
27939;SDS011;15275;51.716;14.324;2023-02-28T15:06:04;6.43;;;3.60;;
27939;SDS011;15275;51.716;14.324;2023-02-28T15:08:38;9.93;;;3.75;;
27939;SDS011;15275;51.716;14.324;2023-02-28T15:11:05;9.73;;;3.00;;
27939;SDS011;15275;51.716;14.324;2023-02-28T15:19:00;9.63;;;4.10;;
27939;SDS011;15275;51.716;14.324;2023-02-28T15:21:48;6.53;;;3.67;;
27939;SDS011;15275;51.716;14.324;2023-02-28T15:24:41;8.45;;;3.55;;
27939;SDS011;15275;51.716;14.324;2023-02-28T15:27:15;7.85;;;4.05;;
27939;SDS011;15275;51.716;14.324;2023-02-28T15:29:48;7.03;;;3.53;;
27939;SDS011;15275;51.716;14.324;2023-02-28T15:35:24;6.32;;;3.65;;
27939;SDS011;15275;51.716;14.324;2023-02-28T15:40:49;6.65;;;3.45;;
27939;SDS011;15275;51.716;14.324;2023-02-28T15:43:28;5.80;;;3.83;;
27939;SDS011;15275;51.716;14.324;2023-02-28T15:46:03;5.97;;;3.35;;
27939;SDS011;15275;51.716;14.324;2023-02-28T15:48:44;5.90;;;3.08;;
27939;SDS011;15275;51.716;14.324;2023-02-28T15:51:22;7.47;;;3.40;;
27939;SDS011;15275;51.716;14.324;2023-02-28T15:54:02;8.65;;;3.70;;
27939;SDS011;15275;51.716;14.324;2023-02-28T15:56:33;10.68;;;4.20;;
27939;SDS011;15275;51.716;14.324;2023-02-28T15:59:06;10.10;;;3.70;;
27939;SDS011;15275;51.716;14.324;2023-02-28T16:01:39;7.93;;;3.53;;
27939;SDS011;15275;51.716;14.324;2023-02-28T16:04:06;8.30;;;3.63;;
27939;SDS011;15275;51.716;14.324;2023-02-28T16:06:44;6.53;;;3.83;;
27939;SDS011;15275;51.716;14.324;2023-02-28T16:09:14;8.13;;;4.35;;
27939;SDS011;15275;51.716;14.324;2023-02-28T16:11:45;8.75;;;4.30;;
27939;SDS011;15275;51.716;14.324;2023-02-28T16:14:25;5.43;;;3.70;;
27939;SDS011;15275;51.716;14.324;2023-02-28T16:16:55;8.55;;;4.47;;
27939;SDS011;15275;51.716;14.324;2023-02-28T16:19:28;6.40;;;3.78;;
27939;SDS011;15275;51.716;14.324;2023-02-28T16:21:54;10.82;;;5.10;;
27939;SDS011;15275;51.716;14.324;2023-02-28T16:24:20;8.02;;;4.38;;
27939;SDS011;15275;51.716;14.324;2023-02-28T16:26:47;8.85;;;3.63;;
27939;SDS011;15275;51.716;14.324;2023-02-28T16:29:30;9.07;;;4.32;;
27939;SDS011;15275;51.716;14.324;2023-02-28T16:32:01;9.85;;;4.30;;
27939;SDS011;15275;51.716;14.324;2023-02-28T16:34:30;10.95;;;5.20;;
27939;SDS011;15275;51.716;14.324;2023-02-28T16:36:56;10.00;;;5.13;;
27939;SDS011;15275;51.716;14.324;2023-02-28T16:39:23;9.38;;;4.95;;
27939;SDS011;15275;51.716;14.324;2023-02-28T16:41:49;8.68;;;5.30;;
27939;SDS011;15275;51.716;14.324;2023-02-28T16:44:30;13.07;;;4.95;;
27939;SDS011;15275;51.716;14.324;2023-02-28T16:46:59;9.63;;;5.35;;
27939;SDS011;15275;51.716;14.324;2023-02-28T16:49:26;10.55;;;5.47;;
27939;SDS011;15275;51.716;14.324;2023-02-28T16:51:52;11.45;;;5.28;;
27939;SDS011;15275;51.716;14.324;2023-02-28T16:54:18;9.85;;;5.53;;
27939;SDS011;15275;51.716;14.324;2023-02-28T16:56:45;14.10;;;5.15;;
27939;SDS011;15275;51.716;14.324;2023-02-28T16:59:13;8.93;;;4.32;;
27939;SDS011;15275;51.716;14.324;2023-02-28T17:01:44;11.57;;;5.57;;
27939;SDS011;15275;51.716;14.324;2023-02-28T17:04:10;11.23;;;4.93;;
27939;SDS011;15275;51.716;14.324;2023-02-28T17:06:37;9.98;;;5.25;;
27939;SDS011;15275;51.716;14.324;2023-02-28T17:09:03;11.98;;;4.43;;
27939;SDS011;15275;51.716;14.324;2023-02-28T17:11:29;12.18;;;5.30;;
27939;SDS011;15275;51.716;14.324;2023-02-28T17:13:55;12.63;;;5.28;;
27939;SDS011;15275;51.716;14.324;2023-02-28T17:16:25;14.68;;;6.13;;
27939;SDS011;15275;51.716;14.324;2023-02-28T17:18:59;17.77;;;5.60;;
27939;SDS011;15275;51.716;14.324;2023-02-28T17:21:30;14.20;;;5.47;;
27939;SDS011;15275;51.716;14.324;2023-02-28T17:23:57;17.25;;;6.78;;
27939;SDS011;15275;51.716;14.324;2023-02-28T17:26:23;20.02;;;7.45;;
27939;SDS011;15275;51.716;14.324;2023-02-28T17:28:50;15.00;;;6.50;;
27939;SDS011;15275;51.716;14.324;2023-02-28T17:31:23;11.32;;;5.65;;
27939;SDS011;15275;51.716;14.324;2023-02-28T17:33:50;13.80;;;6.22;;
27939;SDS011;15275;51.716;14.324;2023-02-28T17:36:21;15.23;;;5.45;;
27939;SDS011;15275;51.716;14.324;2023-02-28T17:38:52;12.98;;;5.78;;
27939;SDS011;15275;51.716;14.324;2023-02-28T17:41:20;12.18;;;5.78;;
27939;SDS011;15275;51.716;14.324;2023-02-28T17:43:46;14.48;;;6.15;;
27939;SDS011;15275;51.716;14.324;2023-02-28T17:46:16;14.18;;;6.20;;
27939;SDS011;15275;51.716;14.324;2023-02-28T17:48:50;12.30;;;6.55;;
27939;SDS011;15275;51.716;14.324;2023-02-28T17:51:18;13.95;;;5.60;;
27939;SDS011;15275;51.716;14.324;2023-02-28T17:53:46;14.35;;;5.97;;
27939;SDS011;15275;51.716;14.324;2023-02-28T17:56:17;11.02;;;6.05;;
27939;SDS011;15275;51.716;14.324;2023-02-28T17:58:51;12.02;;;5.22;;
27939;SDS011;15275;51.716;14.324;2023-02-28T18:01:19;14.70;;;6.28;;
27939;SDS011;15275;51.716;14.324;2023-02-28T18:03:46;12.05;;;5.47;;
27939;SDS011;15275;51.716;14.324;2023-02-28T18:06:14;15.75;;;6.50;;
27939;SDS011;15275;51.716;14.324;2023-02-28T18:09:01;13.43;;;5.88;;
27939;SDS011;15275;51.716;14.324;2023-02-28T18:11:27;17.13;;;6.72;;